Time;durP1;ratioP1;P1;durP2;ratioP2;P2;SDS_P1;SDS_P2;PMS_P1;PMS_P2;Temp;Humidity;BMP_temperature;BMP_pressure;BME280_temperature;BME280_humidity;BME280_pressure;Samples;Min_cycle;Max_cycle;Signal;HPM_P1;HPM_P2
2023/01/26 00:00:42;;;;;;;71.85;37.15;;;2.20;99.90;;;;;;2027427;29;20028;-77
2023/01/26 00:01:44;;;;;;;73.50;36.95;;;2.20;99.90;;;;;;2042447;29;20029;-75
2023/01/26 00:02:44;;;;;;;73.20;37.28;;;2.20;99.90;;;;;;2036276;29;20565;-75
2023/01/26 00:03:46;;;;;;;76.35;38.67;;;2.20;99.90;;;;;;2036889;29;20051;-75
2023/01/26 00:04:46;;;;;;;77.15;38.97;;;2.20;99.90;;;;;;2039771;29;20518;-75
2023/01/26 00:05:47;;;;;;;77.32;38.47;;;2.20;99.90;;;;;;2044773;28;20030;-76
2023/01/26 00:06:47;;;;;;;74.15;37.20;;;2.20;99.90;;;;;;2042222;28;20027;-75
2023/01/26 00:07:48;;;;;;;71.15;36.22;;;2.20;99.90;;;;;;2047740;28;20525;-75
2023/01/26 00:08:50;;;;;;;68.60;35.67;;;2.20;99.90;;;;;;2039440;29;20027;-75
2023/01/26 00:09:51;;;;;;;67.32;35.50;;;2.20;99.90;;;;;;2042556;29;20081;-75
2023/01/26 00:10:52;;;;;;;72.05;36.83;;;2.20;99.90;;;;;;2042324;29;20090;-75
2023/01/26 00:11:52;;;;;;;69.65;36.20;;;2.20;99.90;;;;;;2042573;29;20438;-75
2023/01/26 00:12:53;;;;;;;67.80;35.08;;;2.20;99.90;;;;;;2043784;28;20035;-75
2023/01/26 00:13:55;;;;;;;73.05;36.58;;;2.20;99.90;;;;;;2034147;29;20083;-75
2023/01/26 00:14:55;;;;;;;75.75;38.20;;;2.10;99.90;;;;;;2033373;29;20622;-75
2023/01/26 00:15:56;;;;;;;78.43;39.00;;;2.10;99.90;;;;;;2040402;29;20392;-76
2023/01/26 00:16:56;;;;;;;77.65;38.30;;;2.10;99.90;;;;;;2042354;29;20035;-75
2023/01/26 00:17:57;;;;;;;71.70;37.20;;;2.10;99.90;;;;;;2044266;29;20047;-76
2023/01/26 00:18:57;;;;;;;72.97;36.50;;;2.10;99.90;;;;;;2042254;28;20089;-76
2023/01/26 00:19:58;;;;;;;69.53;35.88;;;2.10;99.90;;;;;;2042285;29;20027;-76
2023/01/26 00:21:00;;;;;;;72.63;36.40;;;2.20;99.90;;;;;;2033415;29;20047;-75
2023/01/26 00:22:01;;;;;;;67.82;35.05;;;2.20;99.90;;;;;;2036301;29;20733;-80
2023/01/26 00:23:02;;;;;;;73.63;37.05;;;2.10;99.90;;;;;;2041767;28;20031;-74
2023/01/26 00:24:03;;;;;;;68.00;34.95;;;2.10;99.90;;;;;;2042157;28;20506;-77
2023/01/26 00:25:04;;;;;;;68.07;35.25;;;2.10;99.90;;;;;;2035335;29;20046;-75
2023/01/26 00:26:06;;;;;;;72.20;36.45;;;2.10;99.90;;;;;;2027706;29;20188;-78
2023/01/26 00:27:06;;;;;;;73.57;37.13;;;2.10;99.90;;;;;;2031265;29;20036;-75
2023/01/26 00:28:07;;;;;;;68.70;35.67;;;2.10;99.90;;;;;;2036220;29;20600;-75
2023/01/26 00:29:08;;;;;;;69.38;36.05;;;2.10;99.90;;;;;;2034232;29;20042;-75
2023/01/26 00:30:09;;;;;;;67.43;35.13;;;2.10;99.90;;;;;;2041986;28;20043;-75
2023/01/26 00:31:13;;;;;;;74.07;36.75;;;2.10;99.90;;;;;;2043100;28;20045;-76
2023/01/26 00:32:13;;;;;;;75.50;37.17;;;2.10;99.90;;;;;;2035487;29;20134;-76
2023/01/26 00:33:15;;;;;;;73.72;36.03;;;2.10;99.90;;;;;;2033595;29;20059;-77
2023/01/26 00:34:16;;;;;;;72.97;36.35;;;2.10;99.90;;;;;;2044128;28;20031;-75
2023/01/26 00:35:16;;;;;;;75.57;36.13;;;2.10;99.90;;;;;;2042079;28;20147;-76
2023/01/26 00:36:17;;;;;;;80.82;39.03;;;2.10;99.90;;;;;;2042256;29;20222;-75
2023/01/26 00:37:18;;;;;;;80.53;38.30;;;2.10;99.90;;;;;;2035267;29;20411;-76
2023/01/26 00:38:18;;;;;;;78.82;38.30;;;2.20;99.90;;;;;;2031032;29;20036;-75
2023/01/26 00:39:19;;;;;;;81.72;39.10;;;2.20;99.90;;;;;;2042001;29;20105;-75
2023/01/26 00:40:19;;;;;;;80.70;39.88;;;2.20;99.90;;;;;;2044033;29;20122;-75
2023/01/26 00:42:39;;;;;;;87.43;40.53;;;2.20;99.90;;;;;;2036967;29;20673;-76
2023/01/26 00:43:40;;;;;;;86.93;40.70;;;2.10;99.90;;;;;;2034942;29;20035;-75
2023/01/26 00:44:41;;;;;;;85.57;40.30;;;2.10;99.90;;;;;;2042245;28;20038;-75
2023/01/26 00:45:42;;;;;;;84.70;40.20;;;2.10;99.90;;;;;;2029922;29;20059;-75
2023/01/26 00:46:43;;;;;;;82.72;39.60;;;2.10;99.90;;;;;;2033309;29;20028;-75
2023/01/26 00:47:44;;;;;;;87.35;40.75;;;2.20;99.90;;;;;;2034801;29;20067;-75
2023/01/26 00:48:44;;;;;;;86.35;40.72;;;2.20;99.90;;;;;;2034053;29;20031;-75
2023/01/26 00:49:45;;;;;;;87.35;40.67;;;2.10;99.90;;;;;;2043847;28;20039;-75
2023/01/26 00:50:45;;;;;;;84.80;40.15;;;2.20;99.90;;;;;;2044121;29;20499;-76
2023/01/26 00:51:46;;;;;;;83.35;40.78;;;2.10;99.90;;;;;;2042875;29;20039;-76
2023/01/26 00:52:46;;;;;;;81.93;39.78;;;2.10;99.90;;;;;;2036870;29;20589;-77
2023/01/26 00:53:47;;;;;;;79.65;38.13;;;2.10;99.90;;;;;;2028063;29;20035;-74
2023/01/26 00:54:48;;;;;;;84.03;40.03;;;2.10;99.90;;;;;;2041244;29;20020;-85
2023/01/26 00:55:48;;;;;;;87.35;41.75;;;2.10;99.90;;;;;;2046638;29;20116;-85
2023/01/26 00:56:49;;;;;;;89.68;40.90;;;2.10;99.90;;;;;;2038338;29;20068;-85
2023/01/26 00:57:49;;;;;;;90.75;40.92;;;2.10;99.90;;;;;;2037730;29;20608;-85
2023/01/26 00:58:50;;;;;;;90.50;41.35;;;2.00;99.90;;;;;;2042998;28;20031;-84
2023/01/26 00:59:51;;;;;;;86.07;39.78;;;2.00;99.90;;;;;;2046254;28;20035;-84
2023/01/26 01:00:52;;;;;;;85.78;37.95;;;2.00;99.90;;;;;;2051060;28;20094;-84
2023/01/26 01:01:53;;;;;;;82.70;36.85;;;2.00;99.90;;;;;;2046073;28;20265;-84
2023/01/26 01:02:55;;;;;;;76.78;36.33;;;2.00;99.90;;;;;;2046258;29;20192;-84
2023/01/26 01:03:55;;;;;;;87.05;38.78;;;2.00;99.90;;;;;;2045295;29;20022;-83
2023/01/26 01:04:57;;;;;;;86.30;38.67;;;2.00;99.90;;;;;;2038109;29;20106;-84
2023/01/26 01:06:00;;;;;;;83.45;36.42;;;2.00;99.90;;;;;;2036259;29;20494;-82
2023/01/26 01:07:03;;;;;;;84.57;36.70;;;2.00;99.90;;;;;;2044906;28;20498;-82
2023/01/26 01:08:05;;;;;;;82.25;37.03;;;2.00;99.90;;;;;;2044871;28;20019;-85
2023/01/26 01:09:08;;;;;;;90.60;38.92;;;2.00;99.90;;;;;;2044944;29;20063;-85
2023/01/26 01:10:10;;;;;;;90.25;40.03;;;2.00;99.90;;;;;;2042361;28;20031;-85
2023/01/26 01:11:11;;;;;;;93.95;40.67;;;2.00;99.90;;;;;;2043696;28;20035;-84
2023/01/26 01:12:11;;;;;;;102.65;42.55;;;2.00;99.90;;;;;;2046429;28;20098;-83
2023/01/26 01:13:12;;;;;;;100.78;41.08;;;1.90;99.90;;;;;;2043842;29;20039;-84
2023/01/26 01:14:14;;;;;;;99.97;40.95;;;2.00;99.90;;;;;;2046046;29;20042;-85
2023/01/26 01:15:15;;;;;;;117.82;45.22;;;2.00;99.90;;;;;;2041868;29;20027;-85
2023/01/26 01:16:16;;;;;;;114.30;44.47;;;1.90;99.90;;;;;;2037815;29;20036;-83
2023/01/26 01:17:17;;;;;;;98.40;41.58;;;1.90;99.90;;;;;;2035585;29;20040;-85
2023/01/26 01:18:19;;;;;;;100.88;41.20;;;1.90;99.90;;;;;;2034563;29;20295;-85
2023/01/26 01:19:20;;;;;;;108.20;42.55;;;1.90;99.90;;;;;;2042980;28;20074;-83
2023/01/26 01:20:21;;;;;;;100.10;40.90;;;1.90;99.90;;;;;;2043373;28;20584;-84
2023/01/26 01:21:24;;;;;;;99.63;40.80;;;1.90;99.90;;;;;;2042993;28;20027;-84
2023/01/26 01:22:26;;;;;;;98.07;40.20;;;1.90;99.90;;;;;;2034319;29;20032;-83
2023/01/26 01:23:28;;;;;;;97.97;39.95;;;1.90;99.90;;;;;;2036742;29;20047;-84
2023/01/26 01:24:29;;;;;;;103.05;41.72;;;1.90;99.90;;;;;;2045321;29;20066;-85
2023/01/26 01:25:30;;;;;;;106.82;43.20;;;1.90;99.90;;;;;;2041391;28;20367;-83
2023/01/26 01:26:30;;;;;;;102.88;42.22;;;1.90;99.90;;;;;;2050576;28;20110;-84
2023/01/26 01:27:31;;;;;;;102.82;41.63;;;1.90;99.90;;;;;;2045547;28;20027;-84
2023/01/26 01:28:33;;;;;;;118.80;43.65;;;1.90;99.90;;;;;;2044390;29;20081;-84
2023/01/26 01:29:33;;;;;;;118.85;44.47;;;1.90;99.90;;;;;;2044622;28;20031;-85
2023/01/26 01:30:37;;;;;;;113.68;44.20;;;1.90;99.90;;;;;;2046871;28;20098;-83
2023/01/26 01:31:37;;;;;;;106.95;42.05;;;1.90;99.90;;;;;;2037677;29;20083;-85
2023/01/26 01:32:40;;;;;;;100.95;40.28;;;1.90;99.90;;;;;;2039071;29;20031;-84
2023/01/26 01:33:42;;;;;;;109.88;42.55;;;1.90;99.90;;;;;;2040993;29;20028;-85
2023/01/26 01:34:45;;;;;;;103.38;42.13;;;1.90;99.90;;;;;;2049457;28;20039;-85
2023/01/26 01:35:58;;;;;;;102.78;40.53;;;1.90;99.90;;;;;;2048989;28;20378;-86
2023/01/26 01:36:59;;;;;;;106.53;41.28;;;1.90;99.90;;;;;;2046766;28;20063;-86
2023/01/26 01:37:59;;;;;;;110.70;40.95;;;1.90;99.90;;;;;;2034473;29;20307;-85
2023/01/26 01:39:00;;;;;;;101.50;40.00;;;1.90;99.90;;;;;;2041342;29;20028;-84
2023/01/26 01:40:01;;;;;;;97.47;39.05;;;1.90;99.90;;;;;;2039169;29;20027;-85
2023/01/26 01:41:01;;;;;;;92.57;37.60;;;1.90;99.90;;;;;;2029231;29;20027;-84
2023/01/26 01:42:02;;;;;;;92.53;37.63;;;1.90;99.90;;;;;;2025852;29;20582;-84
2023/01/26 01:43:10;;;;;;;92.82;37.10;;;1.90;99.90;;;;;;2037422;29;20399;-84
2023/01/26 01:44:16;;;;;;;93.03;36.40;;;1.90;99.90;;;;;;2040175;29;20071;-84
2023/01/26 01:45:36;;;;;;;100.03;37.53;;;1.90;99.90;;;;;;2031074;29;20114;-84
2023/01/26 01:46:37;;;;;;;89.00;34.40;;;1.90;99.90;;;;;;2037239;29;20023;-86
2023/01/26 01:47:38;;;;;;;94.32;37.45;;;1.90;99.90;;;;;;2043691;28;20114;-82
2023/01/26 01:48:48;;;;;;;92.10;37.55;;;1.90;99.90;;;;;;2035073;29;20039;-83
2023/01/26 01:49:52;;;;;;;96.75;38.00;;;1.90;99.90;;;;;;2034183;29;20032;-84
2023/01/26 01:50:56;;;;;;;91.85;36.50;;;2.00;99.90;;;;;;2028044;29;20410;-84
2023/01/26 01:52:03;;;;;;;89.53;36.80;;;2.00;99.90;;;;;;2030554;29;20028;-84
2023/01/26 01:53:08;;;;;;;93.05;36.70;;;2.00;99.90;;;;;;2036995;29;20502;-82
2023/01/26 01:54:13;;;;;;;90.05;36.55;;;1.90;99.90;;;;;;2037531;29;20040;-82
2023/01/26 01:55:15;;;;;;;91.57;35.75;;;2.00;99.90;;;;;;2045199;28;20035;-85
2023/01/26 01:56:20;;;;;;;84.63;34.83;;;2.00;99.90;;;;;;2029391;29;20502;-85
2023/01/26 01:57:28;;;;;;;86.82;34.92;;;1.90;99.90;;;;;;2028565;29;20032;-84
2023/01/26 01:58:30;;;;;;;87.68;35.50;;;1.90;99.90;;;;;;2037401;28;20032;-84
2023/01/26 01:59:32;;;;;;;83.07;33.08;;;1.90;99.90;;;;;;2044002;28;20451;-84
2023/01/26 02:00:32;;;;;;;84.28;33.53;;;1.90;99.90;;;;;;2036358;29;20067;-83
2023/01/26 02:01:33;;;;;;;82.47;33.45;;;1.80;99.90;;;;;;2038047;29;20037;-86
2023/01/26 02:02:36;;;;;;;82.32;34.15;;;1.90;99.90;;;;;;2043982;28;20023;-84
2023/01/26 02:03:37;;;;;;;81.35;32.65;;;1.90;99.90;;;;;;2046285;29;20031;-84
2023/01/26 02:04:41;;;;;;;79.25;32.70;;;1.90;99.90;;;;;;2035712;29;20570;-83
2023/01/26 02:06:00;;;;;;;78.57;32.75;;;1.80;99.90;;;;;;2039957;29;20518;-83
2023/01/26 02:07:01;;;;;;;79.20;32.75;;;1.90;99.90;;;;;;2037160;29;20043;-83
2023/01/26 02:08:04;;;;;;;84.90;34.08;;;1.90;99.90;;;;;;2035245;29;20027;-83
2023/01/26 02:09:05;;;;;;;78.60;33.50;;;1.90;99.90;;;;;;2048078;28;20023;-83
2023/01/26 02:10:19;;;;;;;84.72;34.85;;;1.90;99.90;;;;;;2043637;28;20420;-82
2023/01/26 02:11:39;;;;;;;86.80;34.95;;;1.90;99.90;;;;;;2043511;28;20040;-84
2023/01/26 02:12:40;;;;;;;86.90;34.67;;;1.90;99.90;;;;;;2047508;28;20114;-83
2023/01/26 02:13:43;;;;;;;81.78;33.38;;;1.90;99.90;;;;;;2036377;29;20380;-83
2023/01/26 02:14:44;;;;;;;81.03;33.42;;;1.90;99.90;;;;;;2037743;29;20545;-82
2023/01/26 02:15:45;;;;;;;84.18;33.75;;;1.90;99.90;;;;;;2043847;29;20085;-83
2023/01/26 02:16:46;;;;;;;85.70;34.45;;;1.90;99.90;;;;;;2043606;29;20688;-83
2023/01/26 02:17:47;;;;;;;86.60;34.47;;;1.90;99.90;;;;;;2045008;28;20087;-83
2023/01/26 02:18:48;;;;;;;84.90;35.45;;;1.90;99.90;;;;;;2046339;28;20275;-83
2023/01/26 02:20:12;;;;;;;90.07;35.08;;;1.80;99.90;;;;;;2041272;29;20035;-83
2023/01/26 02:21:16;;;;;;;83.30;33.55;;;1.80;99.90;;;;;;2041074;29;20031;-85
2023/01/26 02:22:45;;;;;;;86.15;35.30;;;1.80;99.90;;;;;;2043974;29;20157;-81
2023/01/26 02:24:13;;;;;;;89.40;34.85;;;1.80;99.90;;;;;;2044051;28;20027;-84
2023/01/26 02:25:46;;;;;;;90.18;34.40;;;1.80;99.90;;;;;;2043060;28;20026;-82
2023/01/26 02:26:48;;;;;;;90.35;35.42;;;1.80;99.90;;;;;;2040215;28;20094;-82
2023/01/26 02:27:50;;;;;;;93.07;34.83;;;1.80;99.90;;;;;;2049786;28;20058;-83
2023/01/26 02:28:51;;;;;;;89.40;36.30;;;1.80;99.90;;;;;;2038046;29;20032;-82
2023/01/26 02:29:54;;;;;;;93.25;36.20;;;1.80;99.90;;;;;;2038327;29;20055;-83
2023/01/26 02:30:55;;;;;;;86.35;35.40;;;1.90;99.90;;;;;;2036405;29;20020;-83
2023/01/26 02:31:56;;;;;;;88.47;34.65;;;1.90;99.90;;;;;;2030180;29;20028;-84
2023/01/26 02:32:57;;;;;;;84.78;34.75;;;1.90;99.90;;;;;;2020702;29;20147;-83
2023/01/26 02:33:58;;;;;;;92.30;36.30;;;1.80;99.90;;;;;;2025311;29;20778;-84
2023/01/26 02:34:59;;;;;;;83.78;34.17;;;1.90;99.90;;;;;;2036734;29;20106;-83
2023/01/26 02:36:04;;;;;;;91.93;36.13;;;1.80;99.90;;;;;;2045691;29;20019;-83
2023/01/26 02:37:05;;;;;;;89.90;35.53;;;1.90;99.90;;;;;;2047228;28;20024;-84
2023/01/26 02:38:07;;;;;;;94.90;36.05;;;1.80;99.90;;;;;;2037393;29;20301;-83
2023/01/26 02:39:16;;;;;;;94.38;36.45;;;1.90;99.90;;;;;;2033181;29;20024;-82
2023/01/26 02:40:35;;;;;;;98.88;37.60;;;1.80;99.90;;;;;;2044673;29;20115;-84
2023/01/26 02:42:56;;;;;;;;;;;1.80;99.90;;;;;;2049568;29;20463;-84
2023/01/26 02:43:57;;;;;;;98.38;35.60;;;1.80;99.90;;;;;;2047732;29;19921;-84
2023/01/26 02:44:58;;;;;;;97.75;35.38;;;1.80;99.90;;;;;;2046319;29;20131;-83
2023/01/26 02:45:58;;;;;;;91.40;35.42;;;1.80;99.90;;;;;;2046291;28;20045;-84
2023/01/26 02:46:59;;;;;;;98.03;35.70;;;1.90;99.90;;;;;;2046543;28;20027;-84
2023/01/26 02:48:03;;;;;;;93.72;35.30;;;1.80;99.90;;;;;;2039256;29;20024;-84
2023/01/26 02:50:23;;;;;;;93.13;35.47;;;1.90;99.90;;;;;;2037932;29;20123;-83
2023/01/26 02:51:24;;;;;;;90.45;35.78;;;1.90;99.90;;;;;;2037246;29;20028;-83
2023/01/26 02:52:28;;;;;;;90.05;34.45;;;1.90;99.90;;;;;;2039193;29;20043;-83
2023/01/26 02:53:33;;;;;;;99.75;36.20;;;1.90;99.90;;;;;;2025897;29;20206;-74
2023/01/26 02:55:54;;;;;;;98.22;36.90;;;1.90;99.90;;;;;;2031190;29;20468;-74
2023/01/26 02:56:54;;;;;;;94.95;36.40;;;1.90;99.90;;;;;;2026475;29;20158;-74
2023/01/26 02:58:01;;;;;;;94.70;35.53;;;1.90;99.90;;;;;;2033816;29;20442;-74
2023/01/26 02:59:03;;;;;;;94.60;34.58;;;1.90;99.90;;;;;;2040141;28;20095;-74
2023/01/26 03:00:13;;;;;;;96.57;36.17;;;1.90;99.90;;;;;;2041666;29;20410;-75
2023/01/26 03:01:13;;;;;;;106.00;37.08;;;1.90;99.90;;;;;;2040378;28;20610;-74
2023/01/26 03:02:20;;;;;;;101.88;38.22;;;1.90;99.90;;;;;;2042244;29;20039;-74
2023/01/26 03:03:24;;;;;;;100.55;37.85;;;1.90;99.90;;;;;;2033509;29;20103;-74
2023/01/26 03:04:25;;;;;;;101.80;37.53;;;1.90;99.90;;;;;;2025888;29;20072;-74
2023/01/26 03:05:27;;;;;;;107.75;38.95;;;1.90;99.90;;;;;;2036509;29;20376;-74
2023/01/26 03:06:28;;;;;;;101.50;37.28;;;1.90;99.90;;;;;;2030798;29;21375;-74
2023/01/26 03:07:31;;;;;;;101.22;37.20;;;1.90;99.90;;;;;;2034469;29;20046;-75
2023/01/26 03:08:31;;;;;;;97.80;37.35;;;1.90;99.90;;;;;;2042271;29;20402;-74
2023/01/26 03:09:32;;;;;;;93.38;34.85;;;1.80;99.90;;;;;;2040884;28;20419;-75
2023/01/26 03:10:33;;;;;;;91.97;35.50;;;1.80;99.90;;;;;;2039461;29;20178;-75
2023/01/26 03:11:40;;;;;;;97.60;36.38;;;1.80;99.90;;;;;;2042520;28;20534;-75
2023/01/26 03:12:41;;;;;;;92.00;35.13;;;1.80;99.90;;;;;;2034818;29;20134;-74
2023/01/26 03:13:42;;;;;;;93.00;34.70;;;1.80;99.90;;;;;;2029166;29;20035;-75
2023/01/26 03:14:42;;;;;;;103.38;37.22;;;1.80;99.90;;;;;;2035332;29;20450;-75
2023/01/26 03:15:51;;;;;;;96.85;35.83;;;1.80;99.90;;;;;;2045070;29;20498;-75
2023/01/26 03:16:51;;;;;;;90.72;34.20;;;1.80;99.90;;;;;;2033015;29;20038;-74
2023/01/26 03:27:25;;;;;;;87.32;33.63;;;1.80;99.90;;;;;;2034370;29;20479;-74
2023/01/26 03:27:39;;;;;;;88.65;32.65;;;1.80;99.90;;;;;;2022567;29;20131;-75
2023/01/26 03:28:40;;;;;;;85.10;31.67;;;1.80;99.90;;;;;;2019473;29;20465;-75
2023/01/26 03:29:41;;;;;;;80.43;31.98;;;1.80;99.90;;;;;;2026126;29;20599;-73
2023/01/26 03:30:41;;;;;;;85.10;31.35;;;1.80;99.90;;;;;;2034712;29;20036;-76
2023/01/26 03:31:42;;;;;;;80.22;30.73;;;1.70;99.90;;;;;;2044324;29;20039;-75
2023/01/26 03:32:43;;;;;;;79.30;30.70;;;1.80;99.90;;;;;;2034479;29;20063;-75
2023/01/26 03:33:48;;;;;;;81.45;30.83;;;1.80;99.90;;;;;;2027769;29;20031;-74
2023/01/26 03:34:49;;;;;;;80.10;30.35;;;1.70;99.90;;;;;;2034820;29;20032;-75
2023/01/26 03:35:52;;;;;;;78.07;30.65;;;1.80;99.90;;;;;;2043385;29;20558;-75
2023/01/26 03:36:53;;;;;;;75.82;30.13;;;1.80;99.90;;;;;;2043462;29;20195;-75
2023/01/26 03:37:54;;;;;;;74.78;28.83;;;1.80;99.90;;;;;;2042783;28;20463;-74
2023/01/26 03:39:08;;;;;;;80.00;30.55;;;1.80;99.90;;;;;;2045159;28;20024;-75
2023/01/26 03:56:18;;;;;;;79.88;32.05;;;1.80;99.90;;;;;;2037757;29;20023;-77
2023/01/26 03:57:20;;;;;;;76.05;29.35;;;1.80;99.90;;;;;;2043481;28;20365;-76
2023/01/26 03:58:22;;;;;;;87.28;31.65;;;1.80;99.90;;;;;;2036434;29;20027;-75
2023/01/26 03:59:36;;;;;;;79.95;31.02;;;1.80;99.90;;;;;;2034939;29;20030;-77
2023/01/26 04:00:37;;;;;;;78.20;30.77;;;1.70;99.90;;;;;;2040569;29;20360;-76
2023/01/26 04:01:40;;;;;;;74.78;29.30;;;1.80;99.90;;;;;;2042286;28;20089;-74
2023/01/26 04:09:25;;;;;;;74.68;29.50;;;1.80;99.90;;;;;;2039226;29;20514;-74
2023/01/26 04:10:26;;;;;;;71.30;29.13;;;1.80;99.90;;;;;;2041944;29;20035;-74
2023/01/26 04:11:27;;;;;;;71.25;29.23;;;1.80;99.90;;;;;;2042834;29;20211;-75
2023/01/26 04:12:28;;;;;;;73.30;29.58;;;1.80;99.90;;;;;;2039159;29;20596;-75
2023/01/26 04:21:45;;;;;;;81.43;30.90;;;1.80;99.90;;;;;;2040502;29;20051;-76
2023/01/26 04:22:51;;;;;;;80.45;31.63;;;1.70;99.90;;;;;;2031918;29;20526;-75
2023/01/26 04:23:55;;;;;;;73.50;30.88;;;1.70;99.90;;;;;;2034145;29;20039;-75
2023/01/26 04:24:58;;;;;;;73.20;29.50;;;1.70;99.90;;;;;;2034343;29;20035;-76
2023/01/26 04:25:59;;;;;;;73.18;30.25;;;1.70;99.90;;;;;;2041837;29;20027;-74
2023/01/26 04:26:59;;;;;;;71.95;29.60;;;1.70;99.90;;;;;;2043895;29;20019;-76
2023/01/26 04:28:06;;;;;;;71.28;29.90;;;1.70;99.90;;;;;;2043997;29;20077;-75
2023/01/26 04:29:09;;;;;;;68.80;28.98;;;1.70;99.90;;;;;;2043509;29;20110;-75
2023/01/26 04:30:11;;;;;;;66.93;29.00;;;1.70;99.90;;;;;;2041657;28;20027;-75
2023/01/26 04:31:12;;;;;;;72.15;28.85;;;1.70;99.90;;;;;;2041802;29;20114;-75
2023/01/26 04:32:13;;;;;;;69.97;28.85;;;1.70;99.90;;;;;;2041094;28;20031;-75
2023/01/26 04:33:14;;;;;;;71.90;30.20;;;1.70;99.90;;;;;;2043358;28;20517;-75
2023/01/26 04:34:15;;;;;;;77.63;30.67;;;1.70;99.90;;;;;;2043389;28;20081;-75
2023/01/26 04:35:15;;;;;;;72.43;29.95;;;1.70;99.90;;;;;;2041721;28;20035;-75
2023/01/26 04:36:18;;;;;;;73.43;30.88;;;1.70;99.90;;;;;;2041672;29;20099;-75
2023/01/26 04:37:21;;;;;;;73.15;30.67;;;1.70;99.90;;;;;;2041488;29;20054;-76
2023/01/26 04:38:22;;;;;;;77.32;30.10;;;1.70;99.90;;;;;;2039144;29;20506;-75
2023/01/26 04:39:26;;;;;;;73.80;29.70;;;1.70;99.90;;;;;;2031923;29;20544;-75
2023/01/26 04:40:29;;;;;;;85.03;31.63;;;1.60;99.90;;;;;;2025343;28;20032;-73
2023/01/26 04:41:51;;;;;;;76.30;29.42;;;1.60;99.90;;;;;;2036061;29;20035;-76
2023/01/26 04:42:54;;;;;;;77.82;29.83;;;1.60;99.90;;;;;;2034758;28;20028;-75
2023/01/26 04:43:55;;;;;;;77.93;30.33;;;1.60;99.90;;;;;;2043367;28;20900;-75
2023/01/26 04:45:00;;;;;;;71.28;28.38;;;1.60;99.90;;;;;;2038747;28;20027;-75
2023/01/26 04:46:05;;;;;;;71.57;28.70;;;1.60;99.90;;;;;;2041536;29;20186;-75
2023/01/26 04:47:07;;;;;;;72.60;29.35;;;1.60;99.90;;;;;;2041820;29;20031;-76
2023/01/26 04:48:08;;;;;;;74.63;30.42;;;1.60;99.90;;;;;;2041992;28;20115;-75
2023/01/26 04:49:09;;;;;;;68.97;28.33;;;1.60;99.90;;;;;;2041640;28;20035;-74
2023/01/26 04:50:10;;;;;;;68.63;28.77;;;1.60;99.90;;;;;;2034067;29;20023;-74
2023/01/26 04:51:16;;;;;;;69.15;28.83;;;1.60;99.90;;;;;;2035851;29;20028;-77
2023/01/26 04:52:16;;;;;;;73.90;29.50;;;1.60;99.90;;;;;;2041952;29;20031;-76
2023/01/26 04:53:18;;;;;;;71.00;28.98;;;1.60;99.90;;;;;;2042049;29;20358;-75
2023/01/26 04:54:19;;;;;;;70.03;29.35;;;1.60;99.90;;;;;;2041603;29;20094;-76
2023/01/26 04:55:20;;;;;;;71.88;29.38;;;1.60;99.90;;;;;;2044005;28;20071;-75
2023/01/26 04:56:27;;;;;;;72.57;29.80;;;1.70;99.90;;;;;;2041092;28;20118;-76
2023/01/26 04:57:28;;;;;;;67.13;28.25;;;1.70;99.90;;;;;;2041787;29;20809;-74
2023/01/26 04:58:29;;;;;;;72.10;29.83;;;1.60;99.90;;;;;;2033598;29;20034;-75
2023/01/26 04:59:30;;;;;;;68.50;28.05;;;1.60;99.90;;;;;;2022592;29;20035;-74
2023/01/26 05:00:33;;;;;;;67.07;27.67;;;1.60;99.90;;;;;;2023138;29;20039;-78
2023/01/26 05:01:35;;;;;;;63.17;27.27;;;1.60;99.90;;;;;;2026090;29;20024;-75
2023/01/26 05:02:39;;;;;;;63.60;27.38;;;1.60;99.90;;;;;;2028188;29;20039;-76
2023/01/26 05:03:40;;;;;;;63.55;27.27;;;1.60;99.90;;;;;;2025690;29;20459;-74
2023/01/26 05:04:41;;;;;;;66.97;28.75;;;1.60;99.90;;;;;;2033840;29;20040;-75
2023/01/26 05:05:42;;;;;;;68.45;28.83;;;1.60;99.90;;;;;;2033667;29;20079;-75
2023/01/26 05:06:43;;;;;;;69.60;30.02;;;1.60;99.90;;;;;;2027782;29;20095;-75
2023/01/26 05:07:44;;;;;;;63.10;27.55;;;1.60;99.90;;;;;;2033958;29;20126;-74
2023/01/26 05:08:46;;;;;;;71.68;29.40;;;1.60;99.90;;;;;;2025759;29;20062;-74
2023/01/26 05:09:47;;;;;;;70.20;29.65;;;1.60;99.90;;;;;;2026122;29;20032;-75
2023/01/26 05:11:14;;;;;;;68.30;27.83;;;1.60;99.90;;;;;;2038204;28;20070;-77
2023/01/26 05:12:36;;;;;;;67.72;28.63;;;1.60;99.90;;;;;;2031581;29;20054;-77
2023/01/26 05:13:56;;;;;;;68.05;28.08;;;1.60;99.90;;;;;;2047048;28;20047;-76
2023/01/26 05:15:10;;;;;;;63.00;26.50;;;1.60;99.90;;;;;;2038431;28;20422;-75
2023/01/26 05:16:29;;;;;;;63.60;27.33;;;1.60;99.90;;;;;;2039967;28;20039;-76
2023/01/26 05:17:48;;;;;;;72.00;29.20;;;1.60;99.90;;;;;;2042322;28;20043;-76
2023/01/26 05:19:06;;;;;;;71.75;29.60;;;1.70;99.90;;;;;;2036543;29;20028;-73
2023/01/26 05:20:20;;;;;;;68.40;29.30;;;1.70;99.90;;;;;;2033065;29;20507;-73
2023/01/26 05:21:36;;;;;;;70.97;29.30;;;1.70;99.90;;;;;;2035251;29;20431;-71
2023/01/26 05:22:37;;;;;;;69.32;28.73;;;1.70;99.90;;;;;;2034244;29;20491;-71
2023/01/26 05:24:04;;;;;;;73.93;30.00;;;1.70;99.90;;;;;;2041368;29;20142;-71
2023/01/26 05:25:23;;;;;;;70.78;28.88;;;1.60;99.90;;;;;;2040134;29;20042;-73
2023/01/26 05:26:33;;;;;;;72.63;29.55;;;1.70;99.90;;;;;;2027510;29;20522;-75
2023/01/26 05:27:37;;;;;;;70.47;28.55;;;1.70;99.90;;;;;;2027943;29;20230;-72
2023/01/26 05:28:38;;;;;;;68.45;28.35;;;1.60;99.90;;;;;;2033996;29;20050;-73
2023/01/26 05:29:39;;;;;;;66.95;28.52;;;1.60;99.90;;;;;;2035183;29;20487;-73
2023/01/26 05:30:40;;;;;;;73.93;30.60;;;1.60;99.90;;;;;;2033651;29;20086;-75
2023/01/26 05:31:40;;;;;;;75.30;30.50;;;1.60;99.90;;;;;;2035574;29;20032;-73
2023/01/26 05:32:41;;;;;;;73.68;30.08;;;1.60;99.90;;;;;;2033338;29;20036;-72
2023/01/26 05:33:42;;;;;;;72.40;29.85;;;1.60;99.90;;;;;;2027403;29;20032;-74
2023/01/26 05:34:45;;;;;;;78.05;30.27;;;1.60;99.90;;;;;;2036859;29;20497;-73
2023/01/26 05:35:51;;;;;;;78.40;30.35;;;1.60;99.90;;;;;;2043290;28;20059;-75
2023/01/26 05:36:53;;;;;;;67.95;28.83;;;1.60;99.90;;;;;;2035021;29;20020;-76
2023/01/26 05:37:54;;;;;;;71.00;29.02;;;1.60;99.90;;;;;;2025898;29;20035;-75
2023/01/26 05:38:55;;;;;;;73.03;30.17;;;1.60;99.90;;;;;;2025821;29;20765;-74
2023/01/26 05:39:59;;;;;;;68.82;29.25;;;1.60;99.90;;;;;;2033499;29;20549;-75
2023/01/26 05:41:00;;;;;;;66.95;27.33;;;1.60;99.90;;;;;;2041607;28;20462;-74
2023/01/26 05:42:02;;;;;;;75.60;30.00;;;1.60;99.90;;;;;;2041293;28;20526;-74
2023/01/26 05:43:21;;;;;;;75.90;29.70;;;1.60;99.90;;;;;;2041260;29;20055;-74
2023/01/26 05:44:38;;;;;;;76.22;31.00;;;1.60;99.90;;;;;;2031803;29;20059;-73
2023/01/26 05:45:44;;;;;;;73.15;31.10;;;1.60;99.90;;;;;;2038784;29;21093;-76
2023/01/26 05:46:46;;;;;;;72.00;29.70;;;1.60;99.90;;;;;;2033285;29;20428;-73
2023/01/26 05:47:50;;;;;;;73.03;29.77;;;1.60;99.90;;;;;;2035723;29;20024;-76
2023/01/26 05:48:52;;;;;;;73.68;29.85;;;1.60;99.90;;;;;;2044129;28;20031;-74
2023/01/26 05:49:52;;;;;;;76.38;30.05;;;1.60;99.90;;;;;;2033694;29;20830;-74
2023/01/26 05:51:01;;;;;;;71.35;28.58;;;1.60;99.90;;;;;;2034499;29;20039;-75
2023/01/26 05:52:01;;;;;;;81.45;31.55;;;1.60;99.90;;;;;;2033580;29;20075;-75
2023/01/26 05:53:03;;;;;;;78.95;31.40;;;1.60;99.90;;;;;;2025932;29;20109;-73
2023/01/26 05:54:05;;;;;;;75.35;30.77;;;1.60;99.90;;;;;;2031726;29;20031;-75
2023/01/26 05:55:06;;;;;;;79.00;32.17;;;1.60;99.90;;;;;;2035813;29;20229;-75
2023/01/26 05:56:07;;;;;;;71.00;29.70;;;1.60;99.90;;;;;;2041621;28;20027;-74
2023/01/26 05:57:18;;;;;;;70.05;28.90;;;1.60;99.90;;;;;;2033503;29;20032;-75
2023/01/26 05:58:26;;;;;;;80.03;31.00;;;1.60;99.90;;;;;;2034680;29;20406;-74
2023/01/26 05:59:27;;;;;;;77.97;32.28;;;1.60;99.90;;;;;;2037196;28;20028;-72
2023/01/26 06:00:28;;;;;;;82.53;33.17;;;1.60;99.90;;;;;;2027434;29;20422;-75
2023/01/26 06:01:38;;;;;;;75.72;31.30;;;1.50;99.90;;;;;;2027904;29;20538;-74
2023/01/26 06:02:41;;;;;;;75.38;30.85;;;1.60;99.90;;;;;;2039841;29;20020;-75
2023/01/26 06:03:44;;;;;;;72.38;30.40;;;1.60;99.90;;;;;;2041437;28;20151;-77
2023/01/26 06:04:45;;;;;;;73.07;30.05;;;1.60;99.90;;;;;;2033213;29;20103;-75
2023/01/26 06:05:52;;;;;;;65.22;29.25;;;1.60;99.90;;;;;;2033293;29;20032;-74
2023/01/26 06:07:03;;;;;;;67.60;27.75;;;1.60;99.90;;;;;;2031533;29;20273;-75
2023/01/26 06:08:06;;;;;;;67.22;28.95;;;1.60;99.90;;;;;;2033526;29;20111;-75
2023/01/26 06:09:21;;;;;;;72.97;30.20;;;1.60;99.90;;;;;;2041326;29;20038;-74
2023/01/26 06:10:39;;;;;;;70.55;29.80;;;1.60;99.90;;;;;;2044808;28;20058;-74
2023/01/26 06:11:52;;;;;;;78.75;31.13;;;1.60;99.90;;;;;;2035189;29;20035;-74